createdAt,value
2022-09-11T00:00:48.804Z,1.05
2022-09-11T00:05:51.794Z,5.65
2022-09-11T00:10:53.576Z,1.70
2022-09-11T00:15:55.716Z,1.67
2022-09-11T00:20:58.922Z,3.30
2022-09-11T00:26:02.854Z,2.92
2022-09-11T00:31:08.732Z,1.27
2022-09-11T00:36:16.467Z,2.25
2022-09-11T00:46:46.126Z,0.90
2022-09-11T00:51:53.903Z,1.83
2022-09-11T00:57:00.531Z,1.10
2022-09-11T01:02:02.552Z,1.73
2022-09-11T01:07:04.457Z,1.65
2022-09-11T01:12:51.054Z,1.60
2022-09-11T01:18:27.737Z,2.97
2022-09-11T01:23:56.506Z,2.00
2022-09-11T01:29:05.853Z,2.08
2022-09-11T01:34:14.495Z,1.95
2022-09-11T01:39:20.265Z,2.72
2022-09-11T01:44:52.943Z,2.60
2022-09-11T01:50:03.836Z,3.05
2022-09-11T01:55:39.238Z,1.20
2022-09-11T02:00:46.467Z,2.50
2022-09-11T02:05:58.991Z,2.43
2022-09-11T02:11:10.577Z,1.38
2022-09-11T02:16:26.318Z,3.30
2022-09-11T02:21:31.017Z,1.70
2022-09-11T02:26:39.997Z,6.35
2022-09-11T02:31:43.824Z,1.73
2022-09-11T02:37:13.562Z,5.32
2022-09-11T02:42:22.562Z,2.60
2022-09-11T02:47:31.276Z,2.55
2022-09-11T02:52:52.127Z,6.63
2022-09-11T02:58:06.796Z,1.92
2022-09-11T03:03:09.835Z,1.63
2022-09-11T03:08:14.726Z,1.30
2022-09-11T03:13:17.101Z,3.60
2022-09-11T03:18:20.503Z,1.55
2022-09-11T03:23:23.215Z,1.70
2022-09-11T03:28:25.222Z,2.95
2022-09-11T03:33:28.243Z,1.67
2022-09-11T03:38:30.136Z,1.67
2022-09-11T03:43:33.503Z,1.83
2022-09-11T03:48:38.711Z,1.70
2022-09-11T03:53:42.254Z,1.85
2022-09-11T03:58:45.451Z,2.75
2022-09-11T04:03:47.413Z,1.10
2022-09-11T04:09:00.846Z,1.50
2022-09-11T04:14:03.623Z,1.70
2022-09-11T04:19:06.086Z,2.53
2022-09-11T04:24:10.332Z,2.10
2022-09-11T04:29:13.083Z,2.08
2022-09-11T04:34:14.931Z,3.83
2022-09-11T04:39:16.946Z,3.58
2022-09-11T04:44:20.835Z,4.22
2022-09-11T04:49:26.293Z,7.28
2022-09-11T04:54:28.603Z,3.42
2022-09-11T04:59:30.583Z,3.28
2022-09-11T05:04:39.933Z,6.75
2022-09-11T05:09:42.413Z,3.58
2022-09-11T05:14:45.592Z,5.15
2022-09-11T05:19:47.538Z,2.65
2022-09-11T05:24:49.454Z,4.65
2022-09-11T05:29:52.095Z,4.75
2022-09-11T05:34:54.813Z,3.53
2022-09-11T05:39:57.193Z,6.57
2022-09-11T05:44:59.502Z,4.13
2022-09-11T05:50:03.341Z,2.97
2022-09-11T05:55:05.712Z,3.55
2022-09-11T06:00:08.991Z,3.78
2022-09-11T06:05:17.114Z,7.80
2022-09-11T06:10:19.212Z,5.95
2022-09-11T06:15:45.199Z,4.90
2022-09-11T06:20:43.683Z,8.20
2022-09-11T06:25:54.419Z,7.20
2022-09-11T06:30:56.426Z,7.38
2022-09-11T06:36:00.196Z,6.65
2022-09-11T06:41:04.153Z,9.27
2022-09-11T06:51:20.025Z,7.20
2022-09-11T06:56:26.753Z,6.68
2022-09-11T07:01:28.766Z,10.45
2022-09-11T07:06:35.897Z,5.77
2022-09-11T07:11:39.123Z,8.00
2022-09-11T07:16:41.351Z,9.48
2022-09-11T07:21:47.100Z,7.15
2022-09-11T07:26:49.270Z,5.60
2022-09-11T07:31:58.712Z,14.27
2022-09-11T07:37:02.038Z,7.75
2022-09-11T07:42:04.633Z,7.22
2022-09-11T07:47:08.557Z,9.65
2022-09-11T07:52:20.699Z,6.50
2022-09-11T07:57:41.657Z,6.93
2022-09-11T08:02:47.510Z,6.70
2022-09-11T08:07:52.591Z,9.10
2022-09-11T08:12:59.373Z,9.70
2022-09-11T08:18:05.056Z,5.57
2022-09-11T08:23:07.431Z,7.88
2022-09-11T08:28:11.430Z,8.60
2022-09-11T08:33:13.406Z,5.43
2022-09-11T08:38:16.369Z,10.40
2022-09-11T08:43:28.283Z,5.50
2022-09-11T08:48:57.892Z,5.72
2022-09-11T08:54:02.496Z,6.95
2022-09-11T08:59:22.871Z,5.32
2022-09-11T09:04:30.699Z,6.57
2022-09-11T09:14:46.985Z,6.68
2022-09-11T09:20:13.103Z,8.73
2022-09-11T09:25:25.110Z,6.88
2022-09-11T09:30:38.529Z,10.25
2022-09-11T09:35:45.400Z,12.23
2022-09-11T09:41:20.456Z,12.27
2022-09-11T09:46:34.415Z,12.30
2022-09-11T09:51:37.044Z,12.80
2022-09-11T09:56:39.525Z,13.57
2022-09-11T10:01:44.159Z,12.27
2022-09-11T10:06:49.742Z,11.95
2022-09-11T10:12:13.825Z,14.82
2022-09-11T10:17:45.730Z,15.98
2022-09-11T10:22:48.208Z,13.50
2022-09-11T10:28:05.882Z,15.93
2022-09-11T10:33:28.470Z,14.48
2022-09-11T10:38:47.713Z,12.75
2022-09-11T10:44:05.504Z,12.95
2022-09-11T10:49:21.186Z,12.35
2022-09-11T10:54:38.727Z,10.35
2022-09-11T11:00:09.556Z,13.02
2022-09-11T11:05:19.831Z,11.10
2022-09-11T11:10:32.468Z,8.35
2022-09-11T11:15:38.911Z,13.73
2022-09-11T11:21:15.237Z,12.77
2022-09-11T11:26:36.910Z,9.18
2022-09-11T11:31:57.306Z,9.77
2022-09-11T11:37:32.448Z,9.23
2022-09-11T11:42:40.007Z,12.15
2022-09-11T11:47:44.146Z,10.15
2022-09-11T11:53:06.412Z,11.52
2022-09-11T11:58:23.152Z,11.88
2022-09-11T12:03:33.486Z,7.15
2022-09-11T12:08:46.273Z,7.75
2022-09-11T12:13:48.696Z,8.90
2022-09-11T12:19:19.932Z,10.88
2022-09-11T12:25:10.923Z,8.40
2022-09-11T12:30:18.530Z,11.52
2022-09-11T12:35:20.321Z,11.20
2022-09-11T12:40:57.403Z,14.40
2022-09-11T12:45:59.522Z,9.70
2022-09-11T12:51:03.219Z,11.23
2022-09-11T12:56:17.123Z,11.18
2022-09-11T13:01:42.612Z,10.38
2022-09-11T13:06:51.939Z,9.73
2022-09-11T13:11:56.398Z,10.20
2022-09-11T13:17:15.963Z,10.95
2022-09-11T13:22:24.237Z,13.55
2022-09-11T13:27:28.816Z,8.45
2022-09-11T13:32:31.281Z,8.07
2022-09-11T13:37:42.937Z,7.75
2022-09-11T13:42:45.001Z,7.80
2022-09-11T13:47:47.945Z,6.68
2022-09-11T13:52:51.292Z,7.57
2022-09-11T13:58:01.768Z,7.30
2022-09-11T14:03:06.935Z,6.10
2022-09-11T14:08:29.495Z,8.32
2022-09-11T14:13:36.222Z,9.88
2022-09-11T14:19:05.596Z,9.57
2022-09-11T14:24:29.308Z,6.03
2022-09-11T14:29:35.192Z,7.82
2022-09-11T14:34:37.224Z,5.63
2022-09-11T14:39:46.383Z,4.40
2022-09-11T14:44:48.984Z,5.93
2022-09-11T14:49:53.604Z,10.57
2022-09-11T14:54:56.716Z,5.50
2022-09-11T14:59:59.933Z,9.48
2022-09-11T15:05:02.065Z,5.13
2022-09-11T15:10:04.695Z,7.07
2022-09-11T15:15:07.074Z,5.75
2022-09-11T15:20:10.312Z,6.70
2022-09-11T15:25:12.465Z,4.88
2022-09-11T15:30:15.045Z,4.13
2022-09-11T15:35:21.476Z,6.07
2022-09-11T15:40:23.567Z,6.60
2022-09-11T15:45:26.299Z,6.25
2022-09-11T15:50:30.255Z,3.85
2022-09-11T15:55:32.291Z,5.95
2022-09-11T16:00:35.274Z,3.47
2022-09-11T16:05:42.305Z,6.68
2022-09-11T16:10:45.885Z,4.78
2022-09-11T16:15:49.361Z,4.80
2022-09-11T16:20:58.598Z,7.68
2022-09-11T16:26:06.201Z,4.10
2022-09-11T16:36:19.027Z,6.32
2022-09-11T16:41:22.363Z,4.25
2022-09-11T16:46:26.112Z,4.93
2022-09-11T16:51:29.815Z,5.32
2022-09-11T16:56:31.686Z,4.03
2022-09-11T17:01:34.129Z,2.83
2022-09-11T17:06:35.935Z,7.95
2022-09-11T17:11:37.752Z,3.38
2022-09-11T17:16:39.543Z,3.80
2022-09-11T17:21:41.463Z,7.22
2022-09-11T17:26:43.222Z,4.45
2022-09-11T17:31:45.830Z,5.15
2022-09-11T17:36:47.663Z,4.10
2022-09-11T17:41:49.583Z,7.55
2022-09-11T17:46:52.272Z,4.97
2022-09-11T17:51:54.683Z,8.60
2022-09-11T17:56:58.092Z,3.58
2022-09-11T18:02:01.539Z,7.05
2022-09-11T18:07:04.336Z,5.18
2022-09-11T18:12:06.694Z,4.45
2022-09-11T18:17:09.362Z,3.53
2022-09-11T18:22:11.215Z,5.82
2022-09-11T18:27:13.258Z,3.60
2022-09-11T18:32:15.065Z,7.90
2022-09-11T18:37:17.497Z,6.22
2022-09-11T18:42:19.370Z,3.95
2022-09-11T18:47:22.226Z,3.42
2022-09-11T18:52:26.323Z,4.50
2022-09-11T18:57:28.682Z,5.53
2022-09-11T19:02:30.543Z,6.82
2022-09-11T19:07:32.384Z,4.72
2022-09-11T19:12:34.138Z,4.30
2022-09-11T19:17:37.037Z,4.93
2022-09-11T19:22:39.666Z,6.10
2022-09-11T19:27:42.055Z,8.23
2022-09-11T19:32:44.254Z,5.35
2022-09-11T19:37:46.764Z,4.85
2022-09-11T19:42:48.776Z,3.67
2022-09-11T19:47:51.113Z,4.57
2022-09-11T19:52:52.863Z,6.00
2022-09-11T19:57:54.751Z,5.03
2022-09-11T20:02:56.747Z,4.38
2022-09-11T20:08:00.297Z,7.80
2022-09-11T20:13:03.716Z,7.78
2022-09-11T20:18:07.628Z,5.38
2022-09-11T20:23:10.323Z,5.53
2022-09-11T20:28:13.741Z,5.45
2022-09-11T20:33:15.530Z,8.02
2022-09-11T20:38:17.684Z,6.38
2022-09-11T20:43:19.423Z,8.45
2022-09-11T20:48:21.242Z,8.68
2022-09-11T20:53:23.106Z,8.93
2022-09-11T20:58:24.923Z,5.72
2022-09-11T21:03:26.958Z,5.47
2022-09-11T21:08:29.010Z,6.75
2022-09-11T21:13:31.214Z,7.15
2022-09-11T21:18:33.242Z,6.38
2022-09-11T21:23:35.107Z,6.32
2022-09-11T21:28:38.120Z,5.50
2022-09-11T21:33:41.046Z,9.55
2022-09-11T21:38:44.521Z,4.35
2022-09-11T21:43:48.877Z,8.18
2022-09-11T21:48:50.580Z,11.40
2022-09-11T21:53:58.474Z,8.48
2022-09-11T21:59:01.014Z,6.50
2022-09-11T22:04:03.037Z,6.60
2022-09-11T22:09:05.057Z,5.88
2022-09-11T22:14:06.794Z,8.13
2022-09-11T22:19:09.491Z,7.72
2022-09-11T22:24:11.470Z,4.63
2022-09-11T22:29:13.602Z,6.43
2022-09-11T22:34:15.442Z,6.40
2022-09-11T22:39:17.266Z,8.82
2022-09-11T22:44:19.939Z,6.65
2022-09-11T22:49:21.804Z,7.35
2022-09-11T22:54:23.670Z,6.93
2022-09-11T22:59:25.586Z,6.75
2022-09-11T23:04:27.703Z,6.53
2022-09-11T23:09:29.682Z,8.60
2022-09-11T23:14:32.516Z,9.57
2022-09-11T23:19:34.639Z,8.95
2022-09-11T23:24:36.485Z,8.27
2022-09-11T23:29:38.356Z,6.63
2022-09-11T23:34:40.101Z,6.68
2022-09-11T23:39:42.844Z,9.43
2022-09-11T23:44:44.756Z,6.65
2022-09-11T23:49:48.069Z,9.20
2022-09-11T23:54:49.855Z,9.38
2022-09-11T23:59:51.631Z,7.32
